Time;durP1;ratioP1;P1;durP2;ratioP2;P2;SDS_P1;SDS_P2;PMS_P1;PMS_P2;Temp;Humidity;BMP_temperature;BMP_pressure;BME280_temperature;BME280_humidity;BME280_pressure;Samples;Min_cycle;Max_cycle;Signal;HPM_P1;HPM_P2
2021/04/03 00:00:41;;;;;;;6.57;2.17;;;9.70;85.50;;;;;;5073367;28;20547;-79
2021/04/03 00:03:09;;;;;;;2.67;1.95;;;9.70;86.30;;;;;;5073960;28;20169;-78
2021/04/03 00:05:36;;;;;;;7.07;2.78;;;9.70;86.10;;;;;;5079759;28;20183;-77
2021/04/03 00:08:03;;;;;;;2.22;1.58;;;9.70;86.40;;;;;;5054941;28;20203;-78
2021/04/03 00:10:28;;;;;;;6.13;2.10;;;9.70;86.60;;;;;;5071897;28;20199;-78
2021/04/03 00:12:58;;;;;;;6.85;2.70;;;9.70;86.90;;;;;;5071985;28;20168;-79
2021/04/03 00:15:26;;;;;;;5.85;2.50;;;9.70;87.30;;;;;;5071802;28;20786;-79
2021/04/03 00:17:53;;;;;;;5.57;2.70;;;9.70;87.60;;;;;;5071291;28;20226;-79
2021/04/03 00:20:21;;;;;;;5.75;2.10;;;9.70;88.10;;;;;;5071286;28;20184;-78
2021/04/03 00:22:47;;;;;;;6.72;2.65;;;9.70;88.40;;;;;;5071635;28;20194;-78
2021/04/03 00:25:13;;;;;;;4.25;2.22;;;9.70;88.40;;;;;;5072558;28;20184;-78
2021/04/03 00:27:40;;;;;;;5.65;3.30;;;9.70;88.60;;;;;;5072831;28;20188;-78
2021/04/03 00:30:15;;;;;;;4.50;2.40;;;9.70;89.00;;;;;;5073313;28;20247;-79
2021/04/03 00:32:48;;;;;;;5.68;3.03;;;9.70;89.00;;;;;;5054867;28;20192;-78
2021/04/03 00:35:17;;;;;;;5.10;2.72;;;9.70;89.80;;;;;;5071561;28;20179;-77
2021/04/03 00:37:43;;;;;;;3.30;1.80;;;9.60;89.50;;;;;;5072219;28;20192;-78
2021/04/03 00:40:13;;;;;;;5.20;2.90;;;9.70;89.60;;;;;;5070760;28;20191;-78
2021/04/03 00:42:38;;;;;;;3.10;2.45;;;9.60;89.70;;;;;;5072494;28;20180;-78
2021/04/03 00:45:05;;;;;;;8.03;2.90;;;9.60;89.30;;;;;;5054251;28;20530;-78
2021/04/03 00:47:33;;;;;;;6.70;3.15;;;9.50;89.20;;;;;;5071057;28;20551;-78
2021/04/03 00:50:05;;;;;;;5.95;2.75;;;9.40;89.00;;;;;;5037939;28;20620;-78
2021/04/03 00:52:35;;;;;;;9.70;2.42;;;9.40;88.80;;;;;;5045824;28;20528;-78
2021/04/03 00:55:06;;;;;;;6.55;2.67;;;9.40;88.40;;;;;;5071136;28;20596;-78
2021/04/03 00:57:35;;;;;;;6.82;2.10;;;9.30;88.30;;;;;;5070746;28;20622;-79
2021/04/03 01:00:03;;;;;;;7.10;2.90;;;9.30;88.10;;;;;;5070918;28;20176;-78
2021/04/03 01:02:33;;;;;;;4.72;2.30;;;9.30;87.90;;;;;;5070936;28;20226;-77
2021/04/03 01:05:02;;;;;;;10.35;4.07;;;9.20;87.40;;;;;;5075331;28;20219;-78
2021/04/03 01:07:28;;;;;;;7.82;3.25;;;9.10;87.80;;;;;;5071320;28;20281;-78
2021/04/03 01:09:54;;;;;;;7.50;2.80;;;9.10;87.10;;;;;;5070969;28;20218;-78
2021/04/03 01:12:36;;;;;;;9.80;3.60;;;9.00;86.70;;;;;;5053878;28;20562;-77
2021/04/03 01:15:46;;;;;;;7.80;4.88;;;9.00;86.90;;;;;;5070866;28;20200;-78
2021/04/03 01:18:26;;;;;;;8.07;3.75;;;8.90;86.60;;;;;;5070366;28;20199;-79
2021/04/03 01:21:04;;;;;;;5.13;3.38;;;8.80;86.40;;;;;;5054064;28;20270;-78
2021/04/03 01:23:43;;;;;;;8.50;3.60;;;8.80;86.80;;;;;;5053753;28;20168;-78
2021/04/03 01:26:37;;;;;;;11.82;3.30;;;8.70;86.90;;;;;;5070632;28;20225;-79
2021/04/03 01:29:21;;;;;;;7.82;4.20;;;8.60;87.30;;;;;;5070590;28;20290;-79
2021/04/03 01:31:50;;;;;;;8.73;4.15;;;8.60;87.40;;;;;;5070692;28;20168;-78
2021/04/03 01:34:25;;;;;;;6.07;2.47;;;8.50;87.60;;;;;;5070704;28;20540;-78
2021/04/03 01:37:00;;;;;;;11.68;3.58;;;8.50;88.00;;;;;;5070569;28;20196;-77
2021/04/03 01:39:28;;;;;;;6.45;2.67;;;8.40;88.80;;;;;;5055501;28;20617;-78
2021/04/03 01:42:00;;;;;;;9.07;3.15;;;8.40;88.80;;;;;;5074036;28;20172;-78
2021/04/03 01:44:43;;;;;;;8.32;3.40;;;8.30;89.30;;;;;;5071307;28;20627;-78
2021/04/03 01:47:10;;;;;;;12.80;3.83;;;8.30;90.00;;;;;;5056176;28;20267;-78
2021/04/03 01:49:39;;;;;;;9.25;3.00;;;8.30;90.10;;;;;;5075239;28;20172;-78
2021/04/03 01:52:05;;;;;;;8.15;3.20;;;8.30;90.30;;;;;;5076555;28;20160;-79
2021/04/03 01:54:33;;;;;;;13.50;3.40;;;8.20;90.40;;;;;;5076485;28;20570;-78
2021/04/03 01:57:03;;;;;;;7.40;3.10;;;8.20;90.50;;;;;;5058151;28;20610;-79
2021/04/03 01:59:52;;;;;;;6.78;2.78;;;8.30;90.70;;;;;;5087818;28;20262;-79
2021/04/03 02:02:29;;;;;;;9.95;3.30;;;8.30;90.80;;;;;;5097893;28;20200;-79
2021/04/03 02:04:56;;;;;;;8.48;2.78;;;8.30;90.80;;;;;;5097600;28;20204;-79
2021/04/03 02:07:24;;;;;;;7.55;3.10;;;8.30;90.90;;;;;;5097419;28;20184;-78
2021/04/03 02:09:55;;;;;;;6.65;2.72;;;8.40;91.00;;;;;;5080730;28;20218;-78
2021/04/03 02:12:38;;;;;;;7.50;3.35;;;8.40;91.00;;;;;;5098105;28;20176;-79
2021/04/03 02:15:10;;;;;;;5.63;2.90;;;8.40;91.00;;;;;;5097886;28;20164;-78
2021/04/03 02:17:41;;;;;;;6.25;3.55;;;8.40;91.20;;;;;;5078889;28;20196;-78
2021/04/03 02:20:09;;;;;;;7.80;2.40;;;8.40;91.30;;;;;;5067829;28;20164;-78
2021/04/03 02:22:37;;;;;;;7.47;2.72;;;8.50;91.30;;;;;;5074825;28;20544;-79
2021/04/03 02:25:09;;;;;;;9.10;3.63;;;8.50;91.40;;;;;;5074127;28;20207;-78
2021/04/03 02:27:34;;;;;;;6.65;2.33;;;8.50;91.70;;;;;;5056958;28;20189;-79
2021/04/03 02:30:15;;;;;;;6.35;1.75;;;8.60;91.50;;;;;;5074358;28;20173;-78
2021/04/03 02:32:49;;;;;;;5.20;1.30;;;8.50;91.00;;;;;;5074258;28;20176;-79
2021/04/03 02:35:19;;;;;;;2.80;1.27;;;8.50;90.70;;;;;;5074329;28;20329;-77
2021/04/03 02:37:48;;;;;;;2.53;1.08;;;8.50;90.50;;;;;;5057005;28;20219;-78
2021/04/03 02:40:22;;;;;;;4.28;1.55;;;8.50;90.40;;;;;;5073943;28;20253;-79
2021/04/03 02:42:53;;;;;;;5.97;1.20;;;8.50;90.40;;;;;;5073603;28;20183;-78
2021/04/03 02:45:23;;;;;;;8.80;1.40;;;8.50;90.30;;;;;;5073360;28;20207;-79
2021/04/03 02:47:52;;;;;;;5.63;1.33;;;8.50;90.30;;;;;;5072817;28;20188;-79
2021/04/03 02:50:26;;;;;;;6.57;1.23;;;8.40;90.20;;;;;;5073523;28;20183;-78
2021/04/03 02:52:56;;;;;;;3.00;1.05;;;8.40;90.20;;;;;;5072957;28;20175;-79
2021/04/03 02:55:28;;;;;;;4.35;1.15;;;8.50;90.30;;;;;;5073586;28;20225;-77
2021/04/03 02:57:58;;;;;;;6.15;1.40;;;8.40;90.40;;;;;;5076928;28;20267;-79
2021/04/03 03:00:25;;;;;;;7.13;1.92;;;8.50;90.40;;;;;;5074393;28;20172;-79
2021/04/03 03:02:52;;;;;;;9.93;1.48;;;8.50;90.40;;;;;;5074174;28;20532;-79
2021/04/03 03:05:20;;;;;;;5.63;1.63;;;8.50;90.50;;;;;;5074138;28;20207;-78
2021/04/03 03:07:48;;;;;;;5.70;1.80;;;8.50;90.60;;;;;;5055877;28;20286;-78
2021/04/03 03:10:19;;;;;;;12.07;2.78;;;8.50;90.70;;;;;;5072931;28;20236;-78
2021/04/03 03:12:49;;;;;;;7.72;2.25;;;8.50;90.70;;;;;;5072886;28;20172;-78
2021/04/03 03:15:18;;;;;;;4.18;1.50;;;8.50;90.80;;;;;;5074237;28;20225;-78
2021/04/03 03:17:46;;;;;;;5.60;1.50;;;8.50;90.80;;;;;;5055423;28;20188;-78
2021/04/03 03:20:13;;;;;;;5.43;1.88;;;8.50;90.70;;;;;;5072691;28;20521;-79
2021/04/03 03:22:42;;;;;;;7.15;2.00;;;8.50;90.70;;;;;;5066638;22;20655;-75
2021/04/03 03:25:09;;;;;;;7.18;1.60;;;8.50;90.70;;;;;;5035042;28;20212;-76
2021/04/03 03:27:39;;;;;;;6.15;1.90;;;8.60;90.70;;;;;;5029657;28;20180;-76
2021/04/03 03:30:07;;;;;;;5.10;1.60;;;8.60;90.60;;;;;;5025050;28;20173;-77
2021/04/03 03:32:36;;;;;;;4.90;2.03;;;8.60;90.60;;;;;;5001807;28;20286;-77
2021/04/03 03:35:04;;;;;;;11.07;1.75;;;8.60;90.50;;;;;;5052847;28;20205;-76
2021/04/03 03:37:30;;;;;;;7.45;1.55;;;8.60;90.50;;;;;;5037461;28;20173;-76
2021/04/03 03:39:58;;;;;;;7.35;1.30;;;8.60;90.50;;;;;;5036928;28;20189;-76
2021/04/03 03:42:29;;;;;;;9.90;1.88;;;8.60;90.50;;;;;;5019104;28;20533;-76
2021/04/03 03:44:57;;;;;;;9.07;1.90;;;8.60;90.40;;;;;;5018970;28;20181;-76
2021/04/03 03:47:24;;;;;;;9.05;2.20;;;8.60;90.40;;;;;;5047389;28;20256;-76
2021/04/03 03:49:53;;;;;;;5.60;2.30;;;8.60;90.30;;;;;;5034877;28;20181;-76
2021/04/03 03:52:19;;;;;;;5.85;1.77;;;8.60;90.30;;;;;;5035379;28;20656;-77
2021/04/03 03:54:46;;;;;;;9.02;1.67;;;8.60;90.30;;;;;;5029092;28;20204;-76
2021/04/03 03:57:13;;;;;;;6.82;2.50;;;8.60;90.30;;;;;;5035009;28;20165;-76
2021/04/03 03:59:39;;;;;;;7.65;1.60;;;8.60;90.30;;;;;;5035127;28;20180;-76
2021/04/03 04:02:06;;;;;;;4.38;1.77;;;8.60;90.30;;;;;;5034840;28;20180;-76
2021/04/03 04:04:33;;;;;;;6.07;1.70;;;8.60;90.20;;;;;;5034822;28;20547;-76
2021/04/03 04:07:05;;;;;;;7.25;1.60;;;8.60;90.20;;;;;;5034753;28;20580;-77
2021/04/03 04:09:32;;;;;;;5.38;1.65;;;8.60;90.20;;;;;;5018037;28;20173;-77
2021/04/03 04:12:05;;;;;;;9.82;1.73;;;8.60;90.20;;;;;;5034486;28;20251;-76
2021/04/03 04:14:33;;;;;;;9.50;1.67;;;8.60;90.20;;;;;;5054941;28;20252;-76
2021/04/03 04:17:00;;;;;;;7.78;2.55;;;8.60;90.10;;;;;;5054820;28;20169;-76
2021/04/03 04:19:32;;;;;;;7.88;1.77;;;8.60;90.10;;;;;;5034750;28;20173;-76
2021/04/03 04:22:02;;;;;;;5.20;1.55;;;8.60;90.00;;;;;;5034678;28;20168;-76
2021/04/03 04:24:28;;;;;;;6.28;1.50;;;8.60;89.80;;;;;;5052238;28;20700;-76
2021/04/03 04:26:55;;;;;;;3.65;1.30;;;8.60;89.40;;;;;;5034338;28;20169;-76
2021/04/03 04:29:21;;;;;;;4.88;1.58;;;8.60;89.00;;;;;;5030990;28;20217;-76
2021/04/03 04:31:48;;;;;;;4.22;1.10;;;8.70;89.00;;;;;;5030005;28;20907;-76
2021/04/03 04:34:18;;;;;;;4.43;1.20;;;8.70;88.70;;;;;;5034401;28;20292;-76
2021/04/03 04:36:49;;;;;;;5.00;1.60;;;8.70;88.50;;;;;;5034156;28;20161;-76
2021/04/03 04:39:21;;;;;;;8.00;1.50;;;8.70;88.40;;;;;;5052186;28;20173;-76
2021/04/03 04:41:47;;;;;;;5.00;1.80;;;8.70;88.40;;;;;;5052010;28;20165;-76
2021/04/03 04:44:13;;;;;;;6.95;1.83;;;8.80;88.50;;;;;;5052110;28;20532;-76
2021/04/03 04:46:41;;;;;;;7.45;1.90;;;8.80;88.40;;;;;;5017369;28;20173;-76
2021/04/03 04:49:10;;;;;;;4.95;1.20;;;8.80;88.40;;;;;;5034257;28;20179;-76
2021/04/03 04:51:39;;;;;;;7.40;1.55;;;8.80;88.50;;;;;;5036897;28;20181;-76
2021/04/03 04:54:16;;;;;;;6.05;1.45;;;8.80;88.50;;;;;;5034616;28;20208;-76
2021/04/03 04:56:46;;;;;;;6.10;2.25;;;8.80;88.50;;;;;;5033750;28;20294;-76
2021/04/03 04:59:14;;;;;;;5.88;1.52;;;8.80;88.50;;;;;;5034164;28;20169;-76
2021/04/03 05:01:46;;;;;;;4.05;1.45;;;8.80;88.50;;;;;;5018346;28;20649;-76
2021/04/03 05:04:12;;;;;;;8.48;2.72;;;8.80;88.60;;;;;;5033662;28;20200;-75
2021/04/03 05:06:38;;;;;;;12.20;1.23;;;8.80;88.60;;;;;;5000837;28;20256;-76
2021/04/03 05:09:04;;;;;;;3.87;1.30;;;8.80;88.70;;;;;;5033931;28;20777;-76
2021/04/03 05:11:30;;;;;;;7.88;2.10;;;8.80;88.70;;;;;;5034006;28;20184;-76
2021/04/03 05:13:56;;;;;;;5.47;1.30;;;8.80;88.70;;;;;;5033537;28;20201;-76
2021/04/03 05:16:21;;;;;;;6.70;1.63;;;8.80;88.70;;;;;;5033481;28;20169;-76
2021/04/03 05:18:47;;;;;;;5.63;1.60;;;8.90;88.80;;;;;;5033538;28;20528;-76
2021/04/03 05:21:13;;;;;;;6.40;2.20;;;8.90;88.60;;;;;;5033531;28;20556;-76
2021/04/03 05:23:39;;;;;;;6.57;1.63;;;8.80;88.40;;;;;;5029152;28;20629;-76
2021/04/03 05:26:04;;;;;;;6.73;1.80;;;8.80;88.40;;;;;;5046890;28;20575;-76
2021/04/03 05:28:30;;;;;;;7.20;1.87;;;8.80;88.50;;;;;;5026264;28;20264;-76
2021/04/03 05:30:57;;;;;;;6.17;1.27;;;8.80;89.40;;;;;;5042364;28;20166;-76
2021/04/03 05:33:23;;;;;;;4.15;1.30;;;8.80;88.70;;;;;;5024339;28;20612;-77
2021/04/03 05:35:49;;;;;;;9.53;1.60;;;8.80;88.70;;;;;;5016608;28;20681;-77
2021/04/03 05:38:15;;;;;;;4.13;1.50;;;8.80;88.70;;;;;;5031891;28;21092;-78
2021/04/03 05:40:41;;;;;;;9.35;1.80;;;8.80;89.00;;;;;;5033222;28;20195;-79
2021/04/03 05:43:07;;;;;;;7.10;1.80;;;8.80;89.20;;;;;;5013551;28;20271;-78
2021/04/03 05:45:38;;;;;;;8.88;2.20;;;8.90;89.30;;;;;;5013586;28;20180;-78
2021/04/03 05:48:05;;;;;;;8.38;1.38;;;8.90;89.40;;;;;;5044747;28;20298;-77
2021/04/03 05:50:36;;;;;;;9.13;2.55;;;8.90;89.30;;;;;;5034269;28;20171;-76
2021/04/03 05:53:03;;;;;;;9.88;1.80;;;9.00;89.40;;;;;;5051258;28;20188;-78
2021/04/03 05:55:29;;;;;;;5.85;1.35;;;9.00;89.20;;;;;;5050965;28;20746;-79
2021/04/03 05:57:55;;;;;;;12.77;2.20;;;9.00;89.00;;;;;;5051033;28;20204;-77
2021/04/03 06:00:21;;;;;;;8.23;2.53;;;9.00;88.80;;;;;;5051011;28;20169;-78
2021/04/03 06:02:47;;;;;;;5.47;1.45;;;9.00;88.80;;;;;;5033408;28;20610;-78
2021/04/03 06:05:13;;;;;;;6.72;2.10;;;9.10;89.10;;;;;;5051216;28;20231;-79
2021/04/03 06:07:40;;;;;;;7.35;2.03;;;9.10;89.10;;;;;;5055003;28;20161;-78
2021/04/03 06:10:08;;;;;;;11.95;3.17;;;9.10;89.00;;;;;;5051017;28;20201;-78
2021/04/03 06:12:41;;;;;;;6.70;1.45;;;9.20;89.00;;;;;;5051004;28;20192;-78
2021/04/03 06:15:11;;;;;;;4.20;1.20;;;9.20;89.00;;;;;;5033082;28;20259;-79
2021/04/03 06:17:36;;;;;;;12.38;2.95;;;9.20;89.10;;;;;;5050682;28;20587;-77
2021/04/03 06:20:02;;;;;;;4.57;1.37;;;9.30;89.20;;;;;;5050892;28;20165;-78
2021/04/03 06:22:43;;;;;;;9.18;2.42;;;9.30;89.30;;;;;;5033164;28;20169;-78
2021/04/03 06:25:10;;;;;;;9.80;1.95;;;9.30;89.40;;;;;;5014224;28;20545;-79
2021/04/03 06:27:35;;;;;;;11.13;2.40;;;9.40;89.40;;;;;;5008018;28;20165;-79
2021/04/03 06:30:36;;;;;;;7.35;1.80;;;9.40;89.30;;;;;;5033037;28;20214;-78
2021/04/03 06:33:18;;;;;;;7.55;2.35;;;9.50;89.20;;;;;;5033340;28;20223;-78
2021/04/03 06:36:13;;;;;;;6.72;2.03;;;9.60;89.50;;;;;;5037166;28;20177;-78
2021/04/03 06:38:40;;;;;;;7.65;1.60;;;9.60;89.20;;;;;;5048081;28;20537;-77
2021/04/03 06:41:27;;;;;;;9.27;2.70;;;9.70;89.40;;;;;;5036882;28;20169;-76
2021/04/03 06:44:10;;;;;;;7.05;2.00;;;9.80;89.50;;;;;;5059662;28;20566;-77
2021/04/03 06:46:40;;;;;;;9.90;2.88;;;9.90;89.60;;;;;;5053146;28;20173;-76
2021/04/03 06:49:07;;;;;;;9.27;2.42;;;10.00;88.50;;;;;;5051224;28;20707;-77
2021/04/03 06:51:34;;;;;;;7.47;2.05;;;10.10;88.60;;;;;;5054337;28;20175;-76
2021/04/03 06:54:02;;;;;;;9.57;2.60;;;10.20;88.60;;;;;;5037073;28;20197;-77
2021/04/03 06:56:36;;;;;;;9.70;2.22;;;10.30;88.30;;;;;;5055035;28;20169;-77
2021/04/03 06:59:13;;;;;;;7.57;2.58;;;10.40;88.00;;;;;;5038638;28;20243;-78
2021/04/03 07:01:47;;;;;;;11.15;2.45;;;10.40;87.60;;;;;;5022840;28;20160;-77
2021/04/03 07:04:27;;;;;;;12.55;3.05;;;10.50;88.10;;;;;;5021117;28;20215;-77
2021/04/03 07:06:55;;;;;;;5.60;2.20;;;10.60;87.90;;;;;;5019748;28;20179;-78
2021/04/03 07:09:22;;;;;;;9.02;3.05;;;10.70;88.10;;;;;;5036870;28;20165;-78
2021/04/03 07:11:50;;;;;;;11.95;4.78;;;11.00;88.70;;;;;;5054611;28;20655;-78
2021/04/03 07:14:19;;;;;;;9.27;3.22;;;11.50;90.20;;;;;;5036352;28;20246;-78
2021/04/03 07:16:46;;;;;;;6.80;2.85;;;12.20;90.90;;;;;;5047104;28;20215;-77
2021/04/03 07:19:13;;;;;;;13.80;4.20;;;13.10;91.20;;;;;;5053259;28;20882;-77
2021/04/03 07:21:41;;;;;;;8.20;3.40;;;14.00;90.70;;;;;;5041335;28;20272;-78
2021/04/03 07:24:09;;;;;;;10.17;3.70;;;14.90;90.90;;;;;;5039236;28;20201;-77
2021/04/03 07:26:38;;;;;;;8.47;3.67;;;15.70;89.80;;;;;;5056268;28;20560;-78
2021/04/03 07:29:03;;;;;;;9.60;3.43;;;16.60;87.60;;;;;;5030773;28;20672;-77
2021/04/03 07:31:37;;;;;;;7.30;2.63;;;17.20;84.90;;;;;;5038643;28;21207;-77
2021/04/03 07:34:03;;;;;;;8.83;5.30;;;17.90;82.60;;;;;;5048164;28;20205;-76
2021/04/03 07:36:37;;;;;;;10.20;3.37;;;18.70;83.00;;;;;;5035477;28;20591;-77
2021/04/03 07:39:05;;;;;;;5.37;3.07;;;19.50;81.10;;;;;;5045624;28;20577;-78
2021/04/03 07:41:37;;;;;;;7.37;3.50;;;20.30;78.40;;;;;;5035584;28;20645;-78
2021/04/03 07:44:14;;;;;;;7.47;2.27;;;20.70;74.00;;;;;;5051668;28;20629;-77
2021/04/03 07:46:42;;;;;;;6.40;2.43;;;21.30;73.10;;;;;;5049731;28;20599;-77
2021/04/03 07:49:10;;;;;;;6.70;2.57;;;21.80;70.30;;;;;;5044057;28;20603;-77
2021/04/03 07:51:39;;;;;;;6.63;2.30;;;22.20;68.80;;;;;;5052787;28;20633;-76
2021/04/03 07:54:05;;;;;;;4.50;2.63;;;22.60;68.10;;;;;;5044471;28;20990;-76
2021/04/03 07:56:46;;;;;;;5.90;1.97;;;23.10;64.00;;;;;;5052653;28;20610;-76
2021/04/03 07:59:13;;;;;;;5.57;2.03;;;23.40;61.70;;;;;;5040095;28;20648;-77
2021/04/03 08:01:39;;;;;;;6.10;2.23;;;23.60;62.60;;;;;;5012754;28;20595;-77
2021/04/03 08:04:07;;;;;;;5.13;2.60;;;23.80;60.90;;;;;;5016157;28;20599;-77
2021/04/03 08:06:38;;;;;;;6.63;3.20;;;24.20;59.90;;;;;;5017965;28;20581;-77
2021/04/03 08:09:15;;;;;;;6.10;2.23;;;24.50;57.80;;;;;;5035158;28;21156;-78
2021/04/03 08:11:45;;;;;;;6.33;1.67;;;24.90;57.60;;;;;;5034760;28;21164;-78
2021/04/03 08:14:13;;;;;;;4.10;2.10;;;25.10;56.40;;;;;;5052737;28;20669;-78
2021/04/03 08:16:39;;;;;;;6.50;2.00;;;25.40;55.50;;;;;;5052145;28;20924;-78
2021/04/03 08:19:05;;;;;;;6.10;1.70;;;25.60;54.60;;;;;;5052803;28;20618;-78
2021/04/03 08:21:45;;;;;;;6.97;1.40;;;25.80;53.20;;;;;;5018370;28;20969;-78
2021/04/03 08:24:13;;;;;;;4.23;1.47;;;25.90;51.20;;;;;;5034288;28;20711;-78
2021/04/03 08:26:41;;;;;;;8.23;1.67;;;26.10;51.00;;;;;;5034367;28;20563;-78
2021/04/03 08:29:29;;;;;;;7.30;2.07;;;26.30;51.40;;;;;;5067660;28;20570;-77
2021/04/03 08:31:56;;;;;;;5.17;1.50;;;26.60;49.20;;;;;;5025524;28;20580;-77
2021/04/03 08:34:23;;;;;;;5.73;1.93;;;26.70;49.50;;;;;;5009460;28;20623;-76
2021/04/03 08:36:50;;;;;;;7.03;1.90;;;26.80;48.90;;;;;;5033647;28;20595;-77
2021/04/03 08:39:18;;;;;;;6.47;1.80;;;26.70;48.00;;;;;;5067833;28;21071;-76
2021/04/03 08:41:46;;;;;;;6.60;2.60;;;26.80;47.90;;;;;;5027677;28;21167;-76
2021/04/03 08:44:16;;;;;;;10.00;2.40;;;26.80;47.40;;;;;;5040262;28;20655;-76
2021/04/03 08:46:44;;;;;;;9.17;1.80;;;26.90;46.90;;;;;;5033315;28;20586;-77
2021/04/03 08:49:10;;;;;;;7.07;2.40;;;27.10;46.90;;;;;;5047295;28;20575;-77
2021/04/03 08:51:36;;;;;;;5.50;2.23;;;27.30;45.80;;;;;;5008322;28;20580;-78
2021/04/03 08:54:03;;;;;;;7.40;2.70;;;27.40;45.10;;;;;;5025290;28;21038;-77
2021/04/03 08:56:34;;;;;;;9.00;2.67;;;27.40;43.80;;;;;;5049468;28;20556;-77
2021/04/03 08:59:02;;;;;;;7.23;2.30;;;27.40;43.60;;;;;;5028970;28;20606;-77
2021/04/03 09:01:30;;;;;;;7.20;2.47;;;27.40;43.80;;;;;;5025990;28;20600;-76
2021/04/03 09:04:02;;;;;;;6.73;2.10;;;27.50;42.60;;;;;;5050806;28;21234;-76
2021/04/03 09:06:51;;;;;;;7.67;2.93;;;27.40;42.30;;;;;;5051223;28;20610;-76
2021/04/03 09:09:28;;;;;;;6.70;2.63;;;27.50;42.40;;;;;;5043353;28;20572;-76
2021/04/03 09:11:55;;;;;;;5.37;2.30;;;27.40;41.10;;;;;;5055831;28;21125;-76
2021/04/03 09:14:26;;;;;;;9.10;2.33;;;27.30;41.40;;;;;;5051756;28;20595;-76
2021/04/03 09:16:52;;;;;;;6.13;2.23;;;27.50;42.50;;;;;;5016948;28;21018;-76
2021/04/03 09:19:30;;;;;;;6.57;2.80;;;27.80;41.90;;;;;;5033997;28;20572;-76
2021/04/03 09:21:57;;;;;;;6.90;2.60;;;27.90;41.70;;;;;;5033641;28;20575;-76
2021/04/03 09:24:46;;;;;;;6.07;2.80;;;28.00;42.00;;;;;;5056696;28;20650;-78
2021/04/03 09:27:18;;;;;;;5.30;1.93;;;28.40;42.30;;;;;;5052050;28;20571;-80
2021/04/03 09:29:49;;;;;;;4.80;2.20;;;28.60;41.60;;;;;;5030445;28;20572;-80
2021/04/03 09:32:16;;;;;;;7.80;2.87;;;28.80;41.40;;;;;;5023066;28;20641;-79
2021/04/03 09:34:42;;;;;;;7.60;3.17;;;29.00;41.20;;;;;;5014169;28;20892;-80
2021/04/03 09:37:22;;;;;;;6.23;2.87;;;29.10;40.90;;;;;;5031235;28;20572;-79
2021/04/03 09:39:54;;;;;;;6.27;2.50;;;29.20;40.10;;;;;;5031763;28;21161;-79
2021/04/03 09:42:21;;;;;;;5.83;2.33;;;29.10;39.50;;;;;;5014009;28;20573;-80
2021/04/03 09:44:48;;;;;;;8.50;2.70;;;29.00;38.90;;;;;;5031685;28;20620;-80
2021/04/03 09:47:15;;;;;;;5.77;2.63;;;28.90;39.00;;;;;;5031743;28;20921;-79
2021/04/03 09:49:41;;;;;;;8.13;3.03;;;28.80;38.80;;;;;;5018761;28;20619;-80
2021/04/03 09:52:08;;;;;;;11.20;3.93;;;28.70;38.40;;;;;;5014101;28;20652;-79
2021/04/03 09:54:35;;;;;;;7.10;2.90;;;28.70;38.40;;;;;;5031898;28;20600;-79
2021/04/03 09:57:01;;;;;;;8.97;3.30;;;28.70;38.80;;;;;;5049288;28;20585;-80
2021/04/03 09:59:28;;;;;;;6.30;2.93;;;28.80;38.10;;;;;;5031604;28;20583;-80
2021/04/03 10:01:58;;;;;;;4.73;2.90;;;28.80;38.30;;;;;;5040105;28;21122;-80
2021/04/03 10:04:24;;;;;;;7.20;3.10;;;28.80;37.20;;;;;;5042911;28;20998;-80
2021/04/03 10:06:50;;;;;;;6.03;2.70;;;28.70;37.50;;;;;;5033185;28;20564;-80
2021/04/03 10:09:16;;;;;;;7.40;2.73;;;28.80;37.70;;;;;;5035748;28;20563;-80
2021/04/03 10:11:42;;;;;;;4.67;2.50;;;28.90;38.00;;;;;;5055606;28;20566;-80
2021/04/03 10:14:08;;;;;;;6.67;3.23;;;29.00;37.90;;;;;;5055038;28;20606;-79
2021/04/03 10:16:33;;;;;;;5.80;3.50;;;29.20;37.80;;;;;;5049780;28;20594;-79
2021/04/03 10:18:59;;;;;;;7.13;2.97;;;29.40;38.00;;;;;;5030532;28;20567;-80
2021/04/03 10:21:25;;;;;;;7.33;3.90;;;29.50;37.20;;;;;;5037368;28;20247;-80
2021/04/03 10:23:53;;;;;;;9.10;3.20;;;29.40;35.60;;;;;;5054929;28;20212;-79
2021/04/03 10:26:19;;;;;;;8.63;3.50;;;29.20;35.90;;;;;;5058581;28;20571;-80
2021/04/03 10:28:46;;;;;;;10.13;3.97;;;29.20;36.80;;;;;;5037425;28;20613;-80
2021/04/03 10:31:12;;;;;;;7.23;3.77;;;29.20;36.60;;;;;;5020937;28;21103;-80
2021/04/03 10:33:39;;;;;;;4.63;2.53;;;29.20;35.80;;;;;;5037062;28;20625;-80
2021/04/03 10:36:06;;;;;;;6.70;3.60;;;29.10;36.20;;;;;;5011954;28;20577;-80
2021/04/03 10:38:32;;;;;;;5.20;3.03;;;29.00;36.60;;;;;;5041696;28;20586;-81
2021/04/03 10:40:59;;;;;;;7.40;3.30;;;28.80;36.80;;;;;;5034669;28;20572;-80
2021/04/03 10:43:24;;;;;;;7.10;4.17;;;28.70;36.40;;;;;;5034749;28;21028;-80
2021/04/03 10:45:51;;;;;;;7.30;3.90;;;28.60;36.60;;;;;;5017003;28;20697;-80
2021/04/03 10:48:17;;;;;;;8.73;4.20;;;28.50;36.30;;;;;;5034247;28;20309;-81
2021/04/03 10:50:42;;;;;;;6.10;3.97;;;28.30;36.10;;;;;;5000325;28;21004;-81
2021/04/03 10:53:08;;;;;;;8.67;4.10;;;28.10;35.20;;;;;;5035253;28;20687;-80
2021/04/03 10:55:35;;;;;;;9.13;3.93;;;27.70;35.30;;;;;;5037785;28;20174;-80
2021/04/03 10:58:00;;;;;;;7.80;3.33;;;27.40;35.70;;;;;;5034271;28;21053;-80
2021/04/03 11:00:27;;;;;;;15.40;4.90;;;27.20;35.70;;;;;;5047331;28;20679;-81
2021/04/03 11:02:52;;;;;;;9.37;3.90;;;26.90;35.90;;;;;;5049867;28;20998;-81
2021/04/03 11:05:18;;;;;;;6.93;3.50;;;26.90;36.20;;;;;;5052630;28;20619;-81
2021/04/03 11:07:44;;;;;;;4.83;3.20;;;26.80;36.40;;;;;;5046006;28;20168;-81
2021/04/03 11:10:12;;;;;;;5.87;4.10;;;26.70;36.40;;;;;;5036218;28;20215;-81
2021/04/03 11:12:38;;;;;;;10.40;4.43;;;26.70;36.00;;;;;;5026616;28;20255;-81
2021/04/03 11:15:04;;;;;;;6.63;3.60;;;26.50;36.10;;;;;;5062588;28;20563;-80
2021/04/03 11:17:30;;;;;;;6.90;3.67;;;26.40;36.50;;;;;;5009024;28;20184;-80
2021/04/03 11:19:56;;;;;;;5.93;3.00;;;26.30;36.20;;;;;;5053492;28;20564;-82
2021/04/03 11:22:22;;;;;;;5.23;3.83;;;26.10;35.90;;;;;;5051735;28;20165;-82
2021/04/03 11:24:48;;;;;;;3.90;2.97;;;25.80;35.70;;;;;;5034578;28;20634;-80
2021/04/03 11:27:14;;;;;;;6.17;3.63;;;25.70;36.30;;;;;;5033862;28;20565;-80
2021/04/03 11:29:39;;;;;;;7.03;4.00;;;25.50;36.20;;;;;;5016389;28;20255;-80
2021/04/03 11:32:05;;;;;;;7.60;4.43;;;25.50;36.30;;;;;;5034025;28;20164;-81
2021/04/03 11:34:31;;;;;;;7.17;3.87;;;25.20;35.80;;;;;;5016879;28;20189;-81
2021/04/03 11:36:57;;;;;;;6.77;3.97;;;24.90;35.80;;;;;;5034788;28;20606;-80
2021/04/03 11:39:23;;;;;;;5.97;2.93;;;24.70;36.30;;;;;;5036955;28;20188;-80
2021/04/03 11:41:48;;;;;;;5.77;3.60;;;24.60;36.40;;;;;;5036480;28;20169;-80
2021/04/03 11:44:14;;;;;;;4.47;3.20;;;24.50;36.70;;;;;;5033725;28;20201;-81
2021/04/03 11:46:40;;;;;;;11.47;4.90;;;24.60;37.00;;;;;;5046046;28;20174;-81
2021/04/03 11:49:09;;;;;;;7.53;4.40;;;24.60;36.90;;;;;;5041601;28;20663;-81
2021/04/03 11:51:35;;;;;;;11.00;4.87;;;24.60;36.50;;;;;;5017534;28;20202;-81
2021/04/03 11:54:01;;;;;;;6.17;3.77;;;24.40;36.60;;;;;;5033895;28;20600;-82
2021/04/03 11:56:27;;;;;;;8.00;5.10;;;24.30;36.90;;;;;;5032311;28;20603;-80
2021/04/03 11:58:53;;;;;;;5.90;4.57;;;24.10;36.40;;;;;;5016435;28;20161;-80
2021/04/03 12:01:18;;;;;;;5.67;4.97;;;23.90;36.50;;;;;;5016445;28;20630;-82
2021/04/03 12:03:44;;;;;;;7.93;5.07;;;23.70;36.50;;;;;;5033376;28;20185;-80
2021/04/03 12:06:10;;;;;;;5.83;4.17;;;23.60;36.80;;;;;;5033682;28;20657;-82
2021/04/03 12:08:35;;;;;;;5.60;4.50;;;23.60;37.00;;;;;;4998856;28;20661;-81
2021/04/03 12:11:01;;;;;;;6.43;4.90;;;23.60;37.30;;;;;;5016338;28;20176;-81
2021/04/03 12:13:27;;;;;;;7.60;6.00;;;23.50;37.00;;;;;;5033336;28;20192;-81
2021/04/03 12:15:54;;;;;;;6.13;5.57;;;23.30;36.70;;;;;;5016359;28;20323;-82
2021/04/03 12:18:19;;;;;;;7.60;4.90;;;23.00;36.40;;;;;;5019302;28;20584;-80
2021/04/03 12:20:45;;;;;;;7.10;5.33;;;22.70;36.40;;;;;;4999220;28;20591;-81
2021/04/03 12:23:12;;;;;;;12.47;7.13;;;22.60;36.80;;;;;;4999357;28;20615;-81
2021/04/03 12:25:37;;;;;;;5.50;4.80;;;22.40;37.50;;;;;;5015349;28;20673;-80
2021/04/03 12:28:04;;;;;;;6.33;5.73;;;22.10;36.60;;;;;;5036436;28;21236;-81
2021/04/03 12:30:30;;;;;;;8.00;5.67;;;21.80;36.50;;;;;;5018276;28;20599;-81
2021/04/03 12:32:56;;;;;;;8.10;5.40;;;21.50;36.30;;;;;;5052424;28;20973;-80
2021/04/03 12:35:22;;;;;;;5.93;4.93;;;21.00;36.00;;;;;;5053521;28;20161;-80
2021/04/03 12:37:48;;;;;;;7.17;5.97;;;20.60;36.20;;;;;;5034650;28;21153;-81
2021/04/03 12:40:14;;;;;;;8.40;6.17;;;20.30;36.70;;;;;;5052832;28;20610;-80
2021/04/03 12:42:40;;;;;;;5.77;5.23;;;20.10;37.30;;;;;;5052729;28;20667;-81
2021/04/03 12:45:08;;;;;;;7.10;6.33;;;19.80;37.50;;;;;;5052920;28;20611;-81
2021/04/03 12:47:34;;;;;;;7.70;5.20;;;19.70;37.90;;;;;;5054459;28;20570;-80
2021/04/03 12:49:59;;;;;;;10.00;7.53;;;19.60;38.80;;;;;;5034892;28;20994;-80
2021/04/03 12:52:25;;;;;;;8.23;5.70;;;19.60;38.50;;;;;;5052395;28;20667;-81
2021/04/03 12:54:51;;;;;;;9.87;8.00;;;19.30;38.40;;;;;;5038717;28;20218;-81
2021/04/03 12:57:17;;;;;;;10.30;7.50;;;19.10;38.30;;;;;;5053849;28;20582;-80
2021/04/03 12:59:43;;;;;;;6.27;5.53;;;18.80;38.20;;;;;;5036046;28;20545;-80